Time;durP1;ratioP1;P1;durP2;ratioP2;P2;SDS_P1;SDS_P2;PMS_P1;PMS_P2;Temp;Humidity;BMP_temperature;BMP_pressure;BME280_temperature;BME280_humidity;BME280_pressure;Samples;Min_cycle;Max_cycle;Signal;HPM_P1;HPM_P2
2024/02/18 00:00:14;;;;;;;11.48;5.32;;;7.50;99.90;;;;;;5096215;28;20034;-68
2024/02/18 00:03:00;;;;;;;8.13;5.35;;;7.40;99.90;;;;;;5094913;28;20067;-68
2024/02/18 00:05:46;;;;;;;8.48;5.90;;;7.40;99.90;;;;;;5097836;28;20039;-68
2024/02/18 00:08:32;;;;;;;9.93;5.47;;;7.50;99.90;;;;;;5102322;28;20063;-68
2024/02/18 00:11:18;;;;;;;11.70;5.25;;;7.40;99.90;;;;;;5097443;28;20024;-67
2024/02/18 00:14:03;;;;;;;11.85;6.20;;;7.50;99.90;;;;;;5096654;28;20036;-68
2024/02/18 00:16:49;;;;;;;10.30;6.30;;;7.50;99.90;;;;;;5097860;28;20035;-67
2024/02/18 00:19:35;;;;;;;11.03;6.00;;;7.50;99.90;;;;;;5071271;28;20051;-68
2024/02/18 00:22:21;;;;;;;11.88;6.22;;;7.50;99.90;;;;;;5087632;28;20050;-68
2024/02/18 00:25:08;;;;;;;11.37;6.47;;;7.50;99.90;;;;;;5072587;28;20032;-68
2024/02/18 00:27:54;;;;;;;19.80;7.63;;;7.40;99.90;;;;;;5095340;28;20888;-69
2024/02/18 00:30:40;;;;;;;13.05;6.68;;;7.40;99.90;;;;;;5096822;27;20091;-68
2024/02/18 00:33:26;;;;;;;14.73;6.38;;;7.40;99.90;;;;;;5103616;28;20035;-68
2024/02/18 00:36:12;;;;;;;20.40;6.18;;;7.40;99.90;;;;;;5103644;28;20039;-69
2024/02/18 00:38:59;;;;;;;9.98;5.68;;;7.40;99.90;;;;;;5102541;28;20657;-69
2024/02/18 00:41:45;;;;;;;12.57;6.07;;;7.40;99.90;;;;;;5109048;27;20039;-69
2024/02/18 00:44:31;;;;;;;10.30;6.28;;;7.40;99.90;;;;;;5102922;28;20578;-69
2024/02/18 00:47:16;;;;;;;15.07;6.55;;;7.40;99.90;;;;;;5102281;28;20096;-69
2024/02/18 00:50:02;;;;;;;10.60;5.70;;;7.50;99.90;;;;;;5101891;28;20053;-69
2024/02/18 00:52:48;;;;;;;15.35;5.10;;;7.50;99.90;;;;;;5100103;28;20028;-69
2024/02/18 00:55:34;;;;;;;9.05;5.68;;;7.40;99.90;;;;;;5102511;28;20554;-68
2024/02/18 00:58:20;;;;;;;10.05;5.25;;;7.40;99.90;;;;;;5089574;28;20028;-68
2024/02/18 01:01:06;;;;;;;12.20;5.70;;;7.40;99.90;;;;;;5101638;27;20036;-68
2024/02/18 01:03:55;;;;;;;9.85;5.93;;;7.40;99.90;;;;;;5102587;28;20031;-69
2024/02/18 01:06:41;;;;;;;13.07;6.10;;;7.40;99.90;;;;;;5099076;28;20088;-69
2024/02/18 01:09:27;;;;;;;9.57;5.83;;;7.40;99.90;;;;;;5100579;28;20035;-67
2024/02/18 01:12:13;;;;;;;12.85;6.43;;;7.40;99.90;;;;;;5101148;28;20080;-67
2024/02/18 01:14:59;;;;;;;14.57;7.05;;;7.40;99.90;;;;;;5101569;28;20028;-68
2024/02/18 01:17:45;;;;;;;9.93;5.75;;;7.40;99.90;;;;;;5099396;28;20038;-67
2024/02/18 01:20:31;;;;;;;13.68;7.35;;;7.40;99.90;;;;;;5101209;28;20142;-68
2024/02/18 01:23:16;;;;;;;13.63;6.13;;;7.50;99.90;;;;;;5101209;28;20043;-67
2024/02/18 01:26:03;;;;;;;10.35;6.07;;;7.40;99.90;;;;;;5096124;28;20031;-68
2024/02/18 01:28:49;;;;;;;11.38;5.68;;;7.50;99.90;;;;;;5099426;28;20834;-68
2024/02/18 01:31:35;;;;;;;9.43;5.30;;;7.50;99.90;;;;;;5098490;28;20050;-67
2024/02/18 01:34:21;;;;;;;11.88;4.72;;;7.50;99.90;;;;;;5096982;28;20039;-68
2024/02/18 01:37:07;;;;;;;13.25;5.03;;;7.50;99.90;;;;;;5101560;28;20036;-67
2024/02/18 01:39:53;;;;;;;12.43;5.07;;;7.50;99.90;;;;;;5095476;28;20335;-68
2024/02/18 01:42:40;;;;;;;6.65;4.22;;;7.40;99.90;;;;;;5100527;28;20059;-67
2024/02/18 01:45:26;;;;;;;10.48;4.50;;;7.40;99.90;;;;;;5099899;28;20630;-69
2024/02/18 01:48:13;;;;;;;6.70;3.38;;;7.50;99.90;;;;;;5100493;28;20408;-68
2024/02/18 01:51:19;;;;;;;5.60;2.17;;;7.50;99.90;;;;;;5098590;28;20089;-68
2024/02/18 01:54:07;;;;;;;4.43;2.03;;;7.40;99.90;;;;;;5100664;28;20047;-69
2024/02/18 01:56:53;;;;;;;5.65;2.58;;;7.50;99.90;;;;;;5100006;28;20064;-68
2024/02/18 01:59:41;;;;;;;7.85;3.33;;;7.50;99.90;;;;;;5100381;28;20088;-69
2024/02/18 02:02:27;;;;;;;12.90;4.07;;;7.50;99.90;;;;;;5093417;27;20043;-69
2024/02/18 02:05:17;;;;;;;9.35;5.15;;;7.50;99.90;;;;;;5100799;27;20039;-69
2024/02/18 02:08:04;;;;;;;10.65;3.58;;;7.50;99.90;;;;;;5088464;27;20027;-69
2024/02/18 02:10:50;;;;;;;10.15;5.25;;;7.50;99.90;;;;;;5090864;28;20032;-67
2024/02/18 02:13:36;;;;;;;6.93;3.47;;;7.50;99.90;;;;;;5098669;27;20036;-68
2024/02/18 02:16:22;;;;;;;7.25;3.03;;;7.50;99.90;;;;;;5087253;28;20031;-69
2024/02/18 02:19:08;;;;;;;6.15;3.60;;;7.50;99.90;;;;;;5102663;27;20035;-69
2024/02/18 02:21:54;;;;;;;12.18;4.30;;;7.50;99.90;;;;;;5091654;28;20039;-69
2024/02/18 02:24:40;;;;;;;10.48;3.17;;;7.50;99.90;;;;;;5093256;27;20095;-69
2024/02/18 02:27:32;;;;;;;7.07;3.07;;;7.50;99.90;;;;;;5090854;27;20087;-69
2024/02/18 02:30:19;;;;;;;6.22;3.13;;;7.50;99.90;;;;;;5091681;28;20036;-69
2024/02/18 02:33:05;;;;;;;7.63;3.77;;;7.50;99.90;;;;;;5093727;27;20126;-69
2024/02/18 02:35:52;;;;;;;8.73;3.03;;;7.50;99.90;;;;;;5100585;28;20667;-68
2024/02/18 02:38:38;;;;;;;6.13;2.45;;;7.50;99.90;;;;;;5094751;27;20083;-68
2024/02/18 02:41:24;;;;;;;7.88;2.90;;;7.50;99.90;;;;;;5098036;28;20039;-68
2024/02/18 02:44:11;;;;;;;11.07;2.47;;;7.50;99.90;;;;;;5100546;27;20039;-68
2024/02/18 02:46:57;;;;;;;9.85;2.53;;;7.50;99.90;;;;;;5097803;28;20036;-68
2024/02/18 02:49:43;;;;;;;5.75;2.00;;;7.60;99.90;;;;;;5092795;28;20032;-68
2024/02/18 02:52:29;;;;;;;6.90;2.80;;;7.60;99.90;;;;;;5093935;27;20042;-68
2024/02/18 02:55:15;;;;;;;7.60;2.75;;;7.60;99.90;;;;;;5090030;28;20046;-68
2024/02/18 02:58:01;;;;;;;10.63;2.27;;;7.60;99.90;;;;;;5097861;28;20107;-68
2024/02/18 03:00:47;;;;;;;9.48;2.35;;;7.60;99.90;;;;;;5089599;28;20708;-68
2024/02/18 03:03:33;;;;;;;9.32;2.63;;;7.60;99.90;;;;;;5077577;28;20115;-68
2024/02/18 03:06:18;;;;;;;7.90;2.60;;;7.60;99.90;;;;;;5061256;28;20028;-67
2024/02/18 03:09:04;;;;;;;8.63;2.58;;;7.60;99.90;;;;;;5066750;28;20036;-69
2024/02/18 03:11:50;;;;;;;8.17;2.00;;;7.50;99.90;;;;;;5081191;28;20107;-68
2024/02/18 03:14:36;;;;;;;5.63;2.40;;;7.60;99.90;;;;;;5078933;28;20036;-67
2024/02/18 03:17:22;;;;;;;6.22;2.25;;;7.60;99.90;;;;;;5078425;28;20039;-69
2024/02/18 03:20:11;;;;;;;6.13;1.92;;;7.60;99.90;;;;;;5079192;28;20731;-68
2024/02/18 03:22:57;;;;;;;7.60;2.10;;;7.50;99.90;;;;;;5080827;28;20027;-68
2024/02/18 03:25:44;;;;;;;5.90;1.45;;;7.50;99.90;;;;;;5078786;28;20040;-68
2024/02/18 03:28:29;;;;;;;6.82;1.77;;;7.60;99.90;;;;;;5079302;28;20047;-68
2024/02/18 03:31:17;;;;;;;4.55;1.50;;;7.60;99.90;;;;;;5080597;28;20031;-68
2024/02/18 03:34:03;;;;;;;7.63;1.63;;;7.60;99.90;;;;;;5084260;28;20024;-69
2024/02/18 03:36:49;;;;;;;6.90;1.83;;;7.60;99.90;;;;;;5091042;28;20515;-69
2024/02/18 03:39:35;;;;;;;5.78;2.50;;;7.60;99.90;;;;;;5090021;28;20044;-69
2024/02/18 03:42:21;;;;;;;7.28;2.08;;;7.60;99.90;;;;;;5090055;28;20567;-68
2024/02/18 03:45:07;;;;;;;6.00;2.30;;;7.60;99.90;;;;;;5082244;28;20059;-69
2024/02/18 03:47:53;;;;;;;5.63;2.20;;;7.60;99.90;;;;;;5096805;28;20063;-68
2024/02/18 03:50:39;;;;;;;7.97;2.13;;;7.60;99.90;;;;;;5090503;28;20039;-69
2024/02/18 03:53:25;;;;;;;4.15;1.52;;;7.60;99.90;;;;;;5097916;28;20035;-68
2024/02/18 03:56:11;;;;;;;7.22;2.25;;;7.60;99.90;;;;;;5095071;28;20031;-68
2024/02/18 03:58:57;;;;;;;7.93;2.00;;;7.50;99.90;;;;;;5085833;28;20117;-69
2024/02/18 04:01:43;;;;;;;5.85;2.08;;;7.50;99.90;;;;;;5099611;27;20454;-69
2024/02/18 04:04:29;;;;;;;7.05;1.90;;;7.40;99.90;;;;;;5099587;28;20043;-69
2024/02/18 04:07:15;;;;;;;12.13;2.70;;;7.40;99.90;;;;;;5089851;28;20038;-70
2024/02/18 04:10:02;;;;;;;3.63;2.08;;;7.30;99.90;;;;;;5095478;28;20738;-70
2024/02/18 04:12:48;;;;;;;;;;;7.20;99.90;;;;;;5104292;28;20353;-70
2024/02/18 04:15:34;;;;;;;7.13;1.90;;;7.20;99.90;;;;;;5096492;28;19912;-69
2024/02/18 04:18:20;;;;;;;5.28;1.75;;;7.10;99.90;;;;;;5090892;28;20062;-69
2024/02/18 04:21:06;;;;;;;4.30;1.70;;;7.00;99.90;;;;;;5095390;28;20040;-68
2024/02/18 04:23:52;;;;;;;4.60;1.95;;;7.00;99.90;;;;;;5103748;28;20262;-68
2024/02/18 04:26:38;;;;;;;7.28;2.40;;;7.00;99.90;;;;;;5103619;27;20059;-68
2024/02/18 04:29:24;;;;;;;4.78;2.55;;;6.90;99.90;;;;;;5099732;28;20019;-70
2024/02/18 04:32:11;;;;;;;5.82;1.95;;;6.90;99.90;;;;;;5100792;28;20031;-69
2024/02/18 04:34:57;;;;;;;4.72;2.30;;;6.80;99.90;;;;;;5100308;28;20023;-69
2024/02/18 04:37:43;;;;;;;7.30;3.05;;;6.80;99.90;;;;;;5102839;28;20414;-69
2024/02/18 04:40:28;;;;;;;6.30;3.30;;;6.80;99.90;;;;;;5100569;28;20058;-69
2024/02/18 04:43:16;;;;;;;8.25;3.70;;;6.70;99.90;;;;;;5096494;28;20035;-70
2024/02/18 04:46:01;;;;;;;8.13;3.42;;;6.70;99.90;;;;;;5095170;28;20449;-70
2024/02/18 04:48:47;;;;;;;13.43;3.47;;;6.70;99.90;;;;;;5101846;28;20031;-70
2024/02/18 04:51:33;;;;;;;7.78;3.50;;;6.70;99.90;;;;;;5098590;28;20024;-69
2024/02/18 04:54:19;;;;;;;6.65;2.97;;;6.70;99.90;;;;;;5097044;28;20036;-69
2024/02/18 04:57:05;;;;;;;6.05;2.55;;;6.70;99.90;;;;;;5103288;28;20057;-69
2024/02/18 04:59:51;;;;;;;8.45;3.15;;;6.60;99.90;;;;;;5099394;28;20047;-69
2024/02/18 05:02:37;;;;;;;5.93;2.75;;;6.60;99.90;;;;;;5081343;28;20460;-69
2024/02/18 05:05:23;;;;;;;9.33;3.07;;;6.60;99.90;;;;;;5076549;28;20411;-69
2024/02/18 05:08:08;;;;;;;7.18;3.10;;;6.60;99.90;;;;;;5081238;28;20028;-69
2024/02/18 05:10:54;;;;;;;6.28;3.00;;;6.60;99.90;;;;;;5080054;28;20509;-69
2024/02/18 05:13:40;;;;;;;6.40;2.75;;;6.60;99.90;;;;;;5082666;28;20035;-69
2024/02/18 05:16:26;;;;;;;6.18;2.58;;;6.60;99.90;;;;;;5079952;28;20101;-69
2024/02/18 05:19:12;;;;;;;5.03;2.25;;;6.50;99.90;;;;;;5079528;28;20658;-69
2024/02/18 05:21:58;;;;;;;5.18;2.55;;;6.60;99.90;;;;;;5077286;28;20034;-69
2024/02/18 05:24:45;;;;;;;8.17;2.30;;;6.60;99.90;;;;;;5077125;28;20024;-70
2024/02/18 05:27:32;;;;;;;5.50;2.30;;;6.50;99.90;;;;;;5078913;28;20286;-69
2024/02/18 05:30:18;;;;;;;5.97;2.33;;;6.50;99.90;;;;;;5075547;28;20016;-69
2024/02/18 05:33:04;;;;;;;4.93;2.33;;;6.60;99.90;;;;;;5073762;28;20037;-69
2024/02/18 05:35:50;;;;;;;12.10;2.80;;;6.50;99.90;;;;;;5071501;28;20031;-69
2024/02/18 05:38:36;;;;;;;5.63;2.53;;;6.60;99.90;;;;;;5080453;28;20502;-69
2024/02/18 05:41:22;;;;;;;8.25;2.80;;;6.50;99.90;;;;;;5069844;28;20032;-69
2024/02/18 05:44:08;;;;;;;8.45;2.50;;;6.60;99.90;;;;;;5073054;28;20127;-70
2024/02/18 05:46:53;;;;;;;5.72;2.55;;;6.60;99.90;;;;;;5067349;28;20107;-70
2024/02/18 05:49:39;;;;;;;6.63;2.80;;;6.60;99.90;;;;;;5071463;28;20085;-70
2024/02/18 05:52:25;;;;;;;5.38;2.60;;;6.60;99.90;;;;;;5076944;28;20706;-70
2024/02/18 05:55:11;;;;;;;9.73;2.17;;;6.60;99.90;;;;;;5075206;28;20028;-70
2024/02/18 05:57:57;;;;;;;4.53;2.10;;;6.60;99.90;;;;;;5078731;28;20266;-70
2024/02/18 06:00:43;;;;;;;5.07;2.30;;;6.60;99.90;;;;;;5073451;28;20691;-69
2024/02/18 06:03:29;;;;;;;4.57;1.70;;;6.60;99.90;;;;;;5076112;28;20035;-70
2024/02/18 06:06:15;;;;;;;3.37;1.90;;;6.60;99.90;;;;;;5066772;28;20034;-70
2024/02/18 06:09:01;;;;;;;6.15;2.00;;;6.60;99.90;;;;;;5069208;28;20290;-69
2024/02/18 06:11:48;;;;;;;6.95;2.28;;;6.50;99.90;;;;;;5071810;28;20553;-69
2024/02/18 06:14:34;;;;;;;8.60;2.20;;;6.60;99.90;;;;;;5069038;28;20125;-68
2024/02/18 06:17:19;;;;;;;6.22;2.00;;;6.60;99.90;;;;;;5075142;28;20036;-68
2024/02/18 06:20:10;;;;;;;8.02;2.17;;;6.50;99.90;;;;;;5068891;28;20040;-68
2024/02/18 06:22:57;;;;;;;6.35;2.22;;;6.60;99.90;;;;;;5075314;28;20411;-68
2024/02/18 06:25:43;;;;;;;4.18;2.08;;;6.60;99.90;;;;;;5071893;28;20622;-69
2024/02/18 06:28:32;;;;;;;4.93;2.08;;;6.60;99.90;;;;;;5072733;28;20040;-68
2024/02/18 06:31:18;;;;;;;9.25;2.50;;;6.60;99.90;;;;;;5073582;28;20036;-69
2024/02/18 06:34:03;;;;;;;9.02;2.25;;;6.60;99.90;;;;;;5079091;28;20379;-69
2024/02/18 06:36:49;;;;;;;11.82;2.80;;;6.60;99.90;;;;;;5081028;28;20454;-69
2024/02/18 06:39:35;;;;;;;4.43;2.28;;;6.60;99.90;;;;;;5076837;28;20553;-69
2024/02/18 06:42:21;;;;;;;5.75;2.38;;;6.60;99.90;;;;;;5079186;28;20082;-69
2024/02/18 06:45:07;;;;;;;4.95;2.22;;;6.60;99.90;;;;;;5078954;28;20024;-69
2024/02/18 06:47:53;;;;;;;7.10;2.45;;;6.70;99.90;;;;;;5067647;28;20043;-68
2024/02/18 06:50:39;;;;;;;6.50;2.75;;;6.60;99.90;;;;;;5080357;28;20036;-69
2024/02/18 06:53:25;;;;;;;4.90;2.15;;;6.70;99.90;;;;;;5080258;28;20038;-69
2024/02/18 06:56:11;;;;;;;4.45;1.92;;;6.60;99.90;;;;;;5081022;28;20670;-69
2024/02/18 06:58:56;;;;;;;5.55;2.20;;;6.60;99.90;;;;;;5080046;28;20084;-69
2024/02/18 07:01:42;;;;;;;7.53;2.08;;;6.60;99.90;;;;;;5078623;28;20040;-69
2024/02/18 07:04:28;;;;;;;5.45;1.80;;;6.60;99.90;;;;;;5074116;28;20036;-69
2024/02/18 07:07:15;;;;;;;6.57;2.40;;;6.60;99.90;;;;;;5080129;28;20583;-69
2024/02/18 07:10:01;;;;;;;4.55;2.13;;;6.70;99.90;;;;;;5069462;28;20985;-69
2024/02/18 07:12:47;;;;;;;8.35;2.42;;;6.80;99.90;;;;;;5074827;28;20031;-69
2024/02/18 07:15:33;;;;;;;6.95;2.00;;;6.80;99.90;;;;;;5074261;28;20059;-69
2024/02/18 07:18:19;;;;;;;8.07;2.10;;;6.90;99.90;;;;;;5079652;28;20025;-68
2024/02/18 07:21:05;;;;;;;6.25;1.92;;;6.90;99.90;;;;;;5076013;28;20113;-68
2024/02/18 07:23:51;;;;;;;5.27;2.20;;;7.00;99.90;;;;;;5070053;28;20052;-68
2024/02/18 07:26:37;;;;;;;6.22;2.10;;;7.00;99.90;;;;;;5079046;28;20278;-68
2024/02/18 07:29:23;;;;;;;6.88;2.40;;;7.10;99.90;;;;;;5078638;28;20124;-68
2024/02/18 07:32:09;;;;;;;8.80;2.75;;;7.10;99.90;;;;;;5079586;28;20032;-68
2024/02/18 07:34:55;;;;;;;4.95;2.50;;;7.30;99.90;;;;;;5076682;28;20043;-68
2024/02/18 07:37:40;;;;;;;7.77;3.00;;;7.50;99.90;;;;;;5078886;28;20042;-68
2024/02/18 07:40:26;;;;;;;8.63;4.05;;;7.60;99.90;;;;;;5080179;28;20047;-68
2024/02/18 07:43:13;;;;;;;7.75;2.78;;;7.70;99.90;;;;;;5080456;28;20450;-68
2024/02/18 07:45:59;;;;;;;9.95;3.45;;;7.80;99.90;;;;;;5078710;28;20036;-68
2024/02/18 07:48:45;;;;;;;11.23;3.97;;;7.80;99.90;;;;;;5083139;28;20082;-68
2024/02/18 07:51:31;;;;;;;10.35;3.88;;;7.90;99.90;;;;;;5079632;28;20039;-68
2024/02/18 07:54:17;;;;;;;8.30;3.33;;;7.90;99.90;;;;;;5075537;28;20024;-67
2024/02/18 07:57:03;;;;;;;11.33;5.03;;;8.00;99.90;;;;;;5078299;28;20028;-68
2024/02/18 07:59:49;;;;;;;13.50;4.63;;;8.00;99.90;;;;;;5078152;28;20309;-66
2024/02/18 08:02:35;;;;;;;8.75;3.40;;;8.10;99.90;;;;;;5102160;28;20039;-68
2024/02/18 08:05:20;;;;;;;10.13;3.83;;;8.00;99.90;;;;;;5095589;28;20035;-67
2024/02/18 08:08:07;;;;;;;11.27;3.70;;;8.10;99.90;;;;;;5098587;28;20032;-67
2024/02/18 08:10:53;;;;;;;6.20;3.75;;;8.10;99.90;;;;;;5096198;28;20035;-67
2024/02/18 08:13:39;;;;;;;12.75;3.53;;;8.10;99.90;;;;;;5100085;28;20643;-69
2024/02/18 08:16:28;;;;;;;7.65;3.75;;;8.10;99.90;;;;;;5093729;28;20046;-72
2024/02/18 08:19:14;;;;;;;9.98;4.00;;;8.10;99.90;;;;;;5100645;28;20036;-72
2024/02/18 08:22:01;;;;;;;7.83;3.20;;;8.20;99.90;;;;;;5099591;28;20027;-72
2024/02/18 08:24:48;;;;;;;7.85;3.58;;;8.20;99.90;;;;;;5101271;28;20088;-71
2024/02/18 08:27:34;;;;;;;8.98;3.47;;;8.20;99.90;;;;;;5102605;28;20059;-72
2024/02/18 08:30:19;;;;;;;8.13;3.20;;;8.30;99.90;;;;;;5097214;28;20031;-71
2024/02/18 08:33:05;;;;;;;6.15;3.10;;;8.30;99.90;;;;;;5104140;28;20031;-71
2024/02/18 08:35:51;;;;;;;8.27;3.10;;;8.30;99.90;;;;;;5096216;28;20532;-74
2024/02/18 08:38:38;;;;;;;6.15;3.13;;;8.30;99.90;;;;;;5104267;27;20059;-72
2024/02/18 08:41:25;;;;;;;11.95;3.50;;;8.40;99.90;;;;;;5100751;28;20047;-68
2024/02/18 08:44:14;;;;;;;13.50;3.05;;;8.50;99.90;;;;;;5095202;28;20143;-68
2024/02/18 08:47:00;;;;;;;10.75;3.13;;;8.50;99.90;;;;;;5096479;28;20036;-68
2024/02/18 08:49:46;;;;;;;6.30;3.10;;;8.50;99.90;;;;;;5093266;28;20024;-68
2024/02/18 08:52:32;;;;;;;8.07;3.38;;;8.60;99.90;;;;;;5098861;28;20044;-68
2024/02/18 08:55:18;;;;;;;7.25;3.90;;;8.70;99.90;;;;;;5102338;28;20036;-68
2024/02/18 08:58:04;;;;;;;5.75;2.70;;;8.70;99.90;;;;;;5083186;28;20059;-68
2024/02/18 09:00:50;;;;;;;12.73;2.95;;;8.70;99.90;;;;;;5097565;27;20114;-68
2024/02/18 09:03:36;;;;;;;11.45;2.80;;;8.70;99.90;;;;;;5098234;28;20020;-68
2024/02/18 09:06:22;;;;;;;13.73;3.40;;;8.70;99.90;;;;;;5099077;28;20036;-68
2024/02/18 09:09:08;;;;;;;6.95;3.35;;;8.70;99.90;;;;;;5099788;28;20027;-68
2024/02/18 09:11:54;;;;;;;12.43;3.53;;;8.80;99.90;;;;;;5094893;27;20031;-68
2024/02/18 09:14:40;;;;;;;8.20;3.40;;;8.70;99.90;;;;;;5096876;28;20475;-68
2024/02/18 09:17:26;;;;;;;5.35;3.50;;;8.70;99.90;;;;;;5101390;28;20067;-68
2024/02/18 09:20:12;;;;;;;8.07;3.55;;;8.70;99.90;;;;;;5093577;28;20036;-69
2024/02/18 09:22:58;;;;;;;11.02;3.92;;;8.60;99.90;;;;;;5100150;28;20116;-69
2024/02/18 09:25:44;;;;;;;8.77;3.30;;;8.50;99.90;;;;;;5097230;28;20039;-68
2024/02/18 09:28:30;;;;;;;7.00;3.60;;;8.50;99.90;;;;;;5101350;28;20055;-68
2024/02/18 09:31:16;;;;;;;6.60;3.05;;;8.60;99.90;;;;;;5102273;28;20104;-69
2024/02/18 09:34:02;;;;;;;6.00;3.08;;;8.60;99.90;;;;;;4184368;28;10000508;-68
2024/02/18 09:36:48;;;;;;;5.00;2.60;;;8.70;99.90;;;;;;5098667;28;20059;-69
2024/02/18 09:39:34;;;;;;;6.28;2.70;;;8.80;99.90;;;;;;5097565;28;20676;-68
2024/02/18 09:42:20;;;;;;;6.07;2.85;;;8.90;99.90;;;;;;5100647;28;20065;-69
2024/02/18 09:45:07;;;;;;;4.80;2.45;;;8.90;99.90;;;;;;5090953;28;20597;-69
2024/02/18 09:47:54;;;;;;;7.13;2.72;;;9.00;99.90;;;;;;5100327;28;20043;-69
2024/02/18 09:50:41;;;;;;;6.20;2.42;;;9.00;99.90;;;;;;5093744;28;20423;-69
2024/02/18 09:53:28;;;;;;;5.63;2.38;;;9.10;99.90;;;;;;5101963;28;20115;-69
2024/02/18 09:56:14;;;;;;;7.00;2.85;;;9.20;99.90;;;;;;5100128;28;20035;-69
2024/02/18 09:59:00;;;;;;;6.77;2.83;;;9.10;99.90;;;;;;5098187;27;20038;-68
2024/02/18 10:01:51;;;;;;;6.88;2.53;;;9.20;99.90;;;;;;5095775;28;20068;-68
2024/02/18 10:04:37;;;;;;;7.60;2.55;;;9.20;99.90;;;;;;5092883;28;20039;-69
2024/02/18 10:07:23;;;;;;;8.80;2.50;;;9.30;99.90;;;;;;5097558;27;20023;-69
2024/02/18 10:16:33;;;;;;;5.47;2.50;;;9.30;99.90;;;;;;4955541;28;20069;-69
2024/02/18 10:19:26;;;;;;;9.18;2.45;;;9.10;99.90;;;;;;4957547;28;20494;-69
2024/02/18 10:22:32;;;;;;;6.50;2.78;;;9.10;99.90;;;;;;4959989;28;20113;-69
2024/02/18 10:25:18;;;;;;;5.72;2.67;;;9.10;99.90;;;;;;4072105;28;10000837;-68
2024/02/18 10:28:05;;;;;;;4.50;2.20;;;9.00;99.90;;;;;;4938568;29;20038;-68
2024/02/18 10:30:51;;;;;;;4.93;2.20;;;9.00;99.90;;;;;;4948493;28;20137;-69
2024/02/18 10:33:38;;;;;;;5.43;2.43;;;9.00;99.90;;;;;;4940293;28;20065;-69
2024/02/18 10:36:26;;;;;;;6.55;3.00;;;9.00;99.90;;;;;;4936543;28;20683;-69
2024/02/18 10:39:15;;;;;;;4.85;2.45;;;8.90;99.90;;;;;;4945192;28;20035;-69
2024/02/18 10:42:11;;;;;;;6.25;2.55;;;8.90;99.90;;;;;;4935481;28;20114;-68
2024/02/18 10:44:59;;;;;;;5.38;2.65;;;8.90;99.90;;;;;;4939446;28;20035;-68
2024/02/18 10:47:51;;;;;;;6.18;2.65;;;8.80;99.90;;;;;;4942578;28;20588;-68
2024/02/18 10:50:43;;;;;;;7.72;2.80;;;8.80;99.90;;;;;;4940091;28;20068;-72
2024/02/18 10:53:48;;;;;;;9.48;3.58;;;8.70;99.90;;;;;;4944479;28;20106;-68
2024/02/18 10:56:35;;;;;;;5.68;2.70;;;8.80;99.90;;;;;;4942828;28;20070;-68
2024/02/18 10:59:33;;;;;;;8.35;3.63;;;8.80;99.90;;;;;;4936857;28;20040;-68
2024/02/18 11:02:32;;;;;;;9.88;3.00;;;8.70;99.90;;;;;;4944850;28;20681;-69
2024/02/18 11:05:20;;;;;;;4.05;2.25;;;8.70;99.90;;;;;;4943570;28;20061;-68
2024/02/18 11:08:07;;;;;;;;;;;8.70;99.90;;;;;;4942412;28;20036;-69
2024/02/18 11:10:53;;;;;;;3.78;2.22;;;8.80;99.90;;;;;;4936784;28;19910;-69
2024/02/18 11:13:40;;;;;;;7.32;2.88;;;8.70;99.90;;;;;;4929610;28;20035;-69
2024/02/18 11:16:27;;;;;;;;;;;8.60;99.90;;;;;;4935859;28;20462;-69
2024/02/18 11:19:13;;;;;;;5.75;2.45;;;8.70;99.90;;;;;;4937145;28;20649;-69
2024/02/18 11:22:00;;;;;;;4.10;2.55;;;8.80;99.90;;;;;;4935882;29;20051;-70
2024/02/18 11:24:48;;;;;;;;;;;8.70;99.90;;;;;;4938818;29;20547;-69
2024/02/18 11:27:35;;;;;;;8.38;3.22;;;8.60;99.90;;;;;;4936612;28;19918;-70
2024/02/18 11:30:21;;;;;;;7.00;3.00;;;8.40;99.90;;;;;;4931683;28;20035;-70
2024/02/18 11:33:07;;;;;;;6.30;2.30;;;8.40;99.90;;;;;;4940755;28;20034;-69
2024/02/18 11:36:12;;;;;;;6.50;2.30;;;8.40;99.90;;;;;;4934744;28;20039;-69
2024/02/18 11:38:59;;;;;;;3.90;2.30;;;8.60;99.90;;;;;;4949688;28;20039;-70
2024/02/18 11:41:44;;;;;;;6.53;2.80;;;8.60;99.90;;;;;;4939030;28;20049;-70
2024/02/18 11:44:32;;;;;;;5.22;2.67;;;8.50;99.90;;;;;;4943044;28;20467;-70
2024/02/18 11:47:18;;;;;;;8.40;3.28;;;8.50;99.90;;;;;;4943194;28;20035;-71
2024/02/18 11:50:07;;;;;;;5.72;2.53;;;8.40;99.90;;;;;;4940611;28;20046;-71
2024/02/18 11:52:54;;;;;;;5.07;2.15;;;8.50;99.90;;;;;;4941376;28;20047;-71
2024/02/18 11:55:40;;;;;;;;;;;8.50;99.90;;;;;;4935476;28;20028;-70
2024/02/18 11:58:26;;;;;;;5.38;2.38;;;8.60;99.90;;;;;;4926385;28;20027;-71
2024/02/18 12:01:12;;;;;;;2.97;1.97;;;8.60;99.90;;;;;;4935779;28;20047;-71
2024/02/18 12:03:58;;;;;;;5.88;2.92;;;8.60;99.90;;;;;;4934950;28;20509;-70
2024/02/18 12:06:46;;;;;;;7.70;2.92;;;8.60;99.90;;;;;;4941857;28;20046;-71
2024/02/18 12:09:32;;;;;;;5.90;2.20;;;8.50;99.90;;;;;;4943284;28;20039;-70
2024/02/18 12:12:18;;;;;;;5.60;1.95;;;8.40;99.90;;;;;;4930397;28;20043;-71
2024/02/18 12:15:05;;;;;;;5.00;2.33;;;8.50;99.90;;;;;;4952265;28;20043;-70
2024/02/18 12:17:52;;;;;;;5.00;1.90;;;8.60;99.90;;;;;;4940294;28;20047;-70
2024/02/18 12:20:38;;;;;;;4.75;1.98;;;8.50;99.90;;;;;;4942751;28;20047;-70
2024/02/18 12:23:25;;;;;;;6.78;2.53;;;8.50;99.90;;;;;;4945314;28;20513;-69
2024/02/18 12:26:12;;;;;;;6.05;2.35;;;8.30;99.90;;;;;;4947747;28;20031;-69
2024/02/18 12:28:58;;;;;;;4.55;2.00;;;8.30;99.90;;;;;;4936694;28;20077;-69
2024/02/18 12:31:44;;;;;;;6.00;1.90;;;8.30;99.90;;;;;;4952980;28;20772;-69
2024/02/18 12:34:30;;;;;;;5.10;2.33;;;8.40;99.90;;;;;;4942565;28;20034;-71
2024/02/18 12:37:17;;;;;;;2.00;1.58;;;8.40;99.90;;;;;;4941410;29;20557;-69
2024/02/18 12:40:05;;;;;;;3.45;1.77;;;8.40;99.90;;;;;;4945708;29;20726;-68
2024/02/18 12:42:51;;;;;;;5.85;2.20;;;8.30;99.90;;;;;;4945045;29;20035;-68
2024/02/18 12:45:36;;;;;;;6.68;2.17;;;8.10;99.90;;;;;;4942334;29;20043;-68
2024/02/18 12:48:22;;;;;;;5.45;2.10;;;8.00;99.90;;;;;;4943474;28;20641;-67
2024/02/18 12:51:13;;;;;;;5.65;2.05;;;7.90;99.90;;;;;;4939534;29;20078;-67
2024/02/18 12:53:59;;;;;;;4.28;2.22;;;7.80;99.90;;;;;;4940080;28;20039;-68
2024/02/18 12:56:45;;;;;;;10.07;2.08;;;7.70;99.90;;;;;;4939919;28;20043;-67
2024/02/18 12:59:33;;;;;;;6.60;2.30;;;7.70;99.90;;;;;;4942097;28;20211;-67
2024/02/18 13:02:19;;;;;;;5.97;2.38;;;7.70;99.90;;;;;;4944178;28;20131;-68
2024/02/18 13:05:06;;;;;;;4.00;2.10;;;7.70;99.90;;;;;;4946058;28;20803;-68
2024/02/18 13:07:56;;;;;;;5.88;2.08;;;7.70;99.90;;;;;;4942551;28;20027;-68
2024/02/18 13:10:42;;;;;;;3.70;2.40;;;7.80;99.90;;;;;;4939935;29;20039;-69
2024/02/18 13:13:28;;;;;;;5.53;2.42;;;7.90;99.90;;;;;;4937756;29;20891;-69
2024/02/18 13:16:14;;;;;;;5.50;2.65;;;7.80;99.90;;;;;;4934348;29;20570;-69
2024/02/18 13:19:00;;;;;;;7.05;2.60;;;7.80;99.90;;;;;;4942513;28;20056;-69
2024/02/18 13:21:46;;;;;;;5.10;2.42;;;7.70;99.90;;;;;;4939294;29;20043;-68
2024/02/18 13:24:32;;;;;;;5.45;2.90;;;7.70;99.90;;;;;;4936926;28;20463;-68
2024/02/18 13:27:18;;;;;;;5.22;2.78;;;7.60;99.90;;;;;;4942283;29;20036;-67
2024/02/18 13:30:06;;;;;;;5.30;2.88;;;7.70;99.90;;;;;;4939358;28;20035;-68
2024/02/18 13:32:52;;;;;;;4.72;2.80;;;7.70;99.90;;;;;;4938566;28;20134;-68
2024/02/18 13:35:38;;;;;;;5.80;3.00;;;7.60;99.90;;;;;;4940009;29;20031;-68
2024/02/18 13:38:24;;;;;;;4.97;3.07;;;7.50;99.90;;;;;;4940295;28;20550;-68
2024/02/18 13:41:10;;;;;;;7.50;3.30;;;7.50;99.90;;;;;;4925172;29;20032;-68
2024/02/18 13:43:56;;;;;;;9.87;3.20;;;7.60;99.90;;;;;;4939944;28;20044;-68
2024/02/18 13:46:44;;;;;;;4.00;2.63;;;7.50;99.90;;;;;;4935501;28;20043;-68
2024/02/18 13:49:29;;;;;;;5.63;2.78;;;7.60;99.90;;;;;;4935958;29;20110;-68
2024/02/18 13:52:15;;;;;;;6.45;3.22;;;7.50;99.90;;;;;;4934839;29;20201;-68
2024/02/18 13:55:01;;;;;;;6.00;2.87;;;7.50;99.90;;;;;;4938501;29;20126;-68
2024/02/18 13:57:47;;;;;;;5.43;3.20;;;7.50;99.90;;;;;;4944272;28;20031;-68
2024/02/18 14:00:34;;;;;;;6.82;2.97;;;7.40;99.90;;;;;;4936302;29;20047;-68
2024/02/18 14:03:20;;;;;;;6.40;3.80;;;7.40;99.90;;;;;;4937982;28;20036;-68
2024/02/18 14:06:06;;;;;;;4.55;2.72;;;7.30;99.90;;;;;;4940359;28;20130;-68
2024/02/18 14:08:53;;;;;;;5.37;3.10;;;7.30;99.90;;;;;;4941612;28;20192;-69
2024/02/18 14:11:39;;;;;;;;;;;7.40;99.90;;;;;;4933041;29;20035;-68
2024/02/18 14:14:26;;;;;;;7.72;2.50;;;7.40;99.90;;;;;;4941221;28;20418;-68
2024/02/18 14:17:12;;;;;;;4.70;2.83;;;7.50;99.90;;;;;;4934491;29;20051;-68
2024/02/18 14:19:58;;;;;;;5.00;2.13;;;7.50;99.90;;;;;;4942120;29;20042;-68
2024/02/18 14:22:43;;;;;;;7.90;2.45;;;7.50;99.90;;;;;;4930936;29;20053;-68
2024/02/18 14:25:30;;;;;;;7.22;2.30;;;7.50;99.90;;;;;;4942017;28;20037;-68
2024/02/18 14:28:16;;;;;;;4.70;2.85;;;7.50;99.90;;;;;;4934143;28;20590;-69
2024/02/18 14:31:01;;;;;;;3.70;2.20;;;7.50;99.90;;;;;;4938091;28;20055;-69
2024/02/18 14:33:47;;;;;;;3.78;1.92;;;7.50;99.90;;;;;;4935078;28;20848;-69
2024/02/18 14:36:33;;;;;;;3.20;2.15;;;7.50;99.90;;;;;;4936368;29;20542;-69
2024/02/18 14:39:19;;;;;;;3.15;2.08;;;7.50;99.90;;;;;;4935425;28;20960;-69
2024/02/18 14:42:05;;;;;;;5.57;2.00;;;7.50;99.90;;;;;;4938806;28;20701;-69
2024/02/18 14:44:54;;;;;;;3.80;1.70;;;7.40;99.90;;;;;;4939350;28;20065;-67